• Join FlightAware (Why Join?)
  • Login
  • US Flag 
02:07AM EDT


 

Airport Tracker/Info


-or-


 

Live Flight TrackerFlight Track Log ✈ FLG3862 ✈ 17-May-2013 ✈ KBTV - KDTW

Flight Track Log - Related Links

Times and Time Zones

All times are in EDT time to prevent confusion due to time zone crossing. See the FLG3862 flight status page for this flight to view local times or setup timezone preferences in your user account.

Time Position Orientation Groundspeed Altitude Reporting Facility
EDT Latitude Longitude Course Direction KTS MPH feet Rate Location/Type
12:38PM 44.4947 -73.4119 251° West 278 320 9,900  Level Boston Center
12:39PM 44.3793 -73.6414 253° West  Level FlightAware Approximate
12:39PM 44.4708 -73.5339 255° West 297 342 11,400  Level Boston Center
12:40PM 44.3575 -73.7644 259° West  Level FlightAware Approximate
12:40PM 44.4467 -73.6583 255° West 329 379 13,400  Level Boston Center
12:41PM 44.3397 -73.8887 259° West  Level FlightAware Approximate
12:41PM 44.4200 -73.7886 254° West 342 394 15,400  Level Boston Center
12:42PM 44.3189 -74.0120 256° West  Level FlightAware Approximate
12:42PM 44.4000 -73.8928 255° West 347 399 17,000  Level Boston Center
12:43PM 44.3711 -74.0344 254° West 347 399 18,200 1,260 Climbing Boston Center
12:44PM 44.3442 -74.1644 254° West 347 399 19,600 1,380 Climbing Boston Center
12:45PM 44.3214 -74.2972 257° West 347 399 21,000 1,380 Climbing Boston Center
12:46PM 44.2922 -74.4269 253° West 352 405 22,400 1,380 Climbing Boston Center
12:47PM 44.2689 -74.5594 256° West 357 411 23,800 1,200 Climbing Boston Center
12:48PM 44.2436 -74.6831 254° West 351 404 24,900 1,020 Climbing Boston Center
12:49PM 44.2183 -74.8067 254° West 340 391 25,900 960 Climbing Boston Center
12:50PM 44.1947 -74.9275 255° West 335 386 26,900 960 Climbing Boston Center
12:51PM 44.1692 -75.0508 254° West 335 386 27,900 540 Climbing Boston Center
12:52PM 44.1433 -75.1769 254° West 335 386 28,000  Climbing Boston Center
12:53PM 44.1172 -75.3089 255° West 341 392 28,000  Level Boston Center
12:54PM 44.0867 -75.4461 253° West 354 407 28,000  Level Boston Center
12:55PM 44.0578 -75.5836 254° West 368 423 28,000  Level Boston Center
12:56PM 44.0289 -75.7292 255° West 379 436 28,000  Level Boston Center
12:57PM 43.9953 -75.8747 252° West 384 442 28,000  Level Boston Center
12:58PM 43.9661 -76.0144 254° West 390 449 28,000  Level Boston Center
12:59PM 43.9531 -76.1636 263° West 390 449 28,000  Level Boston Center
01:00PM 43.9483 -76.3075 267° West 390 449 28,000  Level Boston Center
01:01PM 43.9453 -76.4517 268° West 385 443 28,000  Level Boston Center
01:02PM 43.9422 -76.6014 268° West 385 443 28,000  Level Boston Center
01:03PM 43.9381 -76.7656 268° West 385 443 28,000  Level Boston Center
01:04PM 43.9344 -76.9125 268° West 385 443 28,000  Level Boston Center
01:05PM 43.9286 -77.0592 267° West 385 443 28,000  Level Boston Center
01:06PM 43.9000 -77.1500 246° West 380 437 28,000  Level Toronto Center
01:07PM 43.9000 -77.3167 270° West 380 437 28,000  Level Toronto Center
01:08PM 43.9000 -77.4500 270° West 380 437 28,000  Level Toronto Center
01:09PM 43.9000 -77.6000 270° West 380 437 28,000  Level Toronto Center
01:11PM 43.8833 -77.9000 266° West 380 437 28,000  Level Toronto Center
01:12PM 43.8667 -78.0333 260° West 380 437 28,000  Level Toronto Center
01:13PM 43.8667 -78.2000 270° West 380 437 28,000  Level Toronto Center
01:14PM 43.8500 -78.3333 260° West 390 449 28,000  Level Toronto Center
01:15PM 43.7833 -78.4833 238° Southwest 400 460 28,000  Level Toronto Center
01:16PM 43.7333 -78.6000 239° Southwest 400 460 28,000  Level Toronto Center
01:17PM 43.6833 -78.7333 243° Southwest 410 472 28,000  Level Toronto Center
01:18PM 43.6167 -78.8667 235° Southwest 410 472 28,000  Level Toronto Center
01:19PM 43.5667 -78.9833 239° Southwest 410 472 28,000  Level Toronto Center
01:20PM 43.5000 -79.1500 241° Southwest 410 472 28,000  Level Toronto Center
01:21PM 43.4333 -79.2667 232° Southwest 410 472 28,000  Level Toronto Center
01:22PM 43.3833 -79.4000 243° Southwest 410 472 28,000  Level Toronto Center
01:23PM 43.3167 -79.5333 236° Southwest 410 472 28,000  Level Toronto Center
01:24PM 43.2667 -79.6500 240° Southwest 410 472 28,000  Level Toronto Center
01:25PM 43.2000 -79.8000 239° Southwest 410 472 28,000  Level Toronto Center
01:26PM 43.1333 -79.9333 236° Southwest 410 472 28,000 -300 Level Toronto Center
01:27PM 43.0667 -80.0667 236° Southwest 410 472 27,400 -900 Descending Toronto Center
01:28PM 43.0167 -80.2000 243° Southwest 410 472 26,200 -1,200 Descending Toronto Center
01:29PM 42.9500 -80.3333 236° Southwest 400 460 25,000 -1,200 Descending Toronto Center
01:30PM 42.9000 -80.4500 240° Southwest 400 460 23,900 -1,200 Descending Toronto Center
01:31PM 42.8519 -80.5861 244° Southwest 406 467 22,800 -1,260 Descending Cleveland Center
01:32PM 42.7956 -80.7050 237° Southwest 400 460 21,600 -1,380 Descending Cleveland Center
01:33PM 42.7433 -80.8122 236° Southwest 366 421 20,100 -840 Descending Cleveland Center
01:34PM 42.6911 -80.9222 237° Southwest 347 399 20,000 -60 Descending Cleveland Center
01:35PM 42.6386 -81.0319 237° Southwest 347 399 20,000  Level Cleveland Center
01:36PM 42.5983 -81.1444 244° Southwest 339 390 20,000  Level Cleveland Center
01:37PM 42.5894 -81.2714 265° West 329 379 20,000  Level Cleveland Center
01:38PM 42.5822 -81.4008 266° West 340 391 20,000 -540 Level Cleveland Center
01:39PM 42.5753 -81.5108 265° West 340 391 19,000 -1,140 Descending Cleveland Center
01:40PM 42.5678 -81.6517 266° West 356 410 17,800 -1,080 Descending Cleveland Center
01:41PM 42.5581 -81.7839 264° West 371 427 16,900 -1,020 Descending Cleveland Center
01:42PM 42.5483 -81.9161 264° West 365 420 15,800 -1,080 Descending Cleveland Center
01:43PM 42.5406 -82.0458 265° West 355 409 14,800 -1,080 Descending Cleveland Center
01:44PM 42.5322 -82.1919 266° West 347 399 13,700 -1,080 Descending Cleveland Center
01:44PM 42.5292 -82.2708 267° West 348 400 13,100 -900 Descending Cleveland Center
01:45PM 42.5222 -82.3044 254° West 349 402 12,800 -1,020 Descending Cleveland Center
01:45PM 42.5189 -82.3917 267° West 351 404 12,200 -840 Descending Cleveland Center
01:46PM 42.5142 -82.4367 262° West 349 402 12,000 -180 Descending Cleveland Center
01:47PM 42.5039 -82.5517 263° West 351 404 12,000  Level Cleveland Center
01:47PM 42.4972 -82.5656 237° Southwest 349 402 12,000  Level Cleveland Center
01:48PM 42.4597 -82.6856 247° West 352 405 12,000  Level Cleveland Center
01:49PM 42.4244 -82.7828 244° Southwest 349 402 12,000  Level Cleveland Center
01:49PM 42.4136 -82.8050 237° Southwest 349 402 12,000  Level Cleveland Center
01:50PM 42.3828 -82.8994 246° West 347 399 12,000  Level Cleveland Center
01:50PM 42.3739 -82.9189 238° Southwest 354 407 12,000  Level Cleveland Center
01:51PM 42.3386 -83.0186 244° Southwest 254 292 12,000  Level Cleveland Center
01:52PM 42.3097 -83.1017 245° Southwest 247 284 12,000  Level Cleveland Center
01:53PM 42.2644 -83.1617 224° Southwest 255 293 12,000 -660 Level Cleveland Center
01:54PM 42.2050 -83.2069 209° Southwest 248 285 10,800 -1,500 Descending Cleveland Center
01:55PM 42.1456 -83.2550 211° Southwest 243 280 9,000 -1,980 Descending Cleveland Center
01:56PM 42.0819 -83.3053 210° Southwest 230 265 6,700 -2,100 Descending Cleveland Center
01:57PM 42.0311 -83.3422 208° Southwest 223 257 4,800 -1,320 Descending Cleveland Center
01:58PM 41.9900 -83.4019 227° Southwest 190 219 4,000 -480 Descending Cleveland Center
01:59PM 42.0200 -83.4453 313° West 177 204 3,900 -300 Descending Cleveland Center
02:00PM 42.0703 -83.4447 360° North 177 204 3,500 -420 Descending Cleveland Center